Time;durP1;ratioP1;P1;durP2;ratioP2;P2;SDS_P1;SDS_P2;PMS_P1;PMS_P2;Temp;Humidity;BMP_temperature;BMP_pressure;BME280_temperature;BME280_humidity;BME280_pressure;Samples;Min_cycle;Max_cycle;Signal;HPM_P1;HPM_P2
2021/12/28 00:01:50;;;;;;;19.65;17.85;;;4.10;99.90;;;;;;5022095;28;88281;-35
2021/12/28 00:04:16;;;;;;;21.02;18.38;;;4.10;99.90;;;;;;5021632;28;89162;-38
2021/12/28 00:06:41;;;;;;;20.75;18.30;;;4.10;99.90;;;;;;5022000;28;89468;-37
2021/12/28 00:09:08;;;;;;;31.77;19.23;;;4.10;99.90;;;;;;5021754;28;90161;-37
2021/12/28 00:11:34;;;;;;;23.92;18.73;;;4.20;99.90;;;;;;5021019;28;89547;-44
2021/12/28 00:14:01;;;;;;;20.38;18.17;;;4.20;99.90;;;;;;5021843;28;90160;-38
2021/12/28 00:16:31;;;;;;;21.80;18.40;;;4.20;99.90;;;;;;5021416;28;90505;-40
2021/12/28 00:18:59;;;;;;;21.75;19.27;;;4.20;99.90;;;;;;5021914;28;88454;-36
2021/12/28 00:21:26;;;;;;;21.83;19.58;;;4.20;99.90;;;;;;5020664;28;87696;-41
2021/12/28 00:23:51;;;;;;;26.67;17.90;;;4.20;99.90;;;;;;5020808;28;90644;-45
2021/12/28 00:26:17;;;;;;;21.33;18.98;;;4.20;99.90;;;;;;5020435;28;89527;-45
2021/12/28 00:28:45;;;;;;;21.95;19.50;;;4.20;99.90;;;;;;5021507;28;88986;-40
2021/12/28 00:31:11;;;;;;;25.13;20.02;;;4.20;99.90;;;;;;5021795;28;90244;-42
2021/12/28 00:33:37;;;;;;;20.38;17.77;;;4.20;99.90;;;;;;5021760;28;89518;-38
2021/12/28 00:36:04;;;;;;;25.60;21.30;;;4.20;99.90;;;;;;5020174;28;89615;-39
2021/12/28 00:38:30;;;;;;;27.15;21.33;;;4.30;99.90;;;;;;5020950;28;89684;-38
2021/12/28 00:40:58;;;;;;;21.63;19.38;;;4.40;99.90;;;;;;5021256;28;87663;-37
2021/12/28 00:43:26;;;;;;;23.08;20.83;;;4.40;99.90;;;;;;5020932;28;90291;-40
2021/12/28 00:45:51;;;;;;;25.38;20.92;;;4.50;99.90;;;;;;5019792;28;89685;-38
2021/12/28 00:48:17;;;;;;;25.17;22.20;;;4.50;99.90;;;;;;5021164;28;88738;-44
2021/12/28 00:50:43;;;;;;;27.13;22.40;;;4.50;99.90;;;;;;5020757;28;88683;-41
2021/12/28 00:53:10;;;;;;;27.65;23.13;;;4.60;99.90;;;;;;5020637;28;90541;-43
2021/12/28 00:55:36;;;;;;;25.45;22.70;;;4.70;99.90;;;;;;5021509;28;89411;-39
2021/12/28 00:58:03;;;;;;;30.80;24.50;;;4.70;99.90;;;;;;5003069;28;89116;-38
2021/12/28 01:00:33;;;;;;;32.60;27.27;;;4.70;99.90;;;;;;5020899;28;89510;-45
2021/12/28 01:03:00;;;;;;;31.30;26.77;;;4.70;99.90;;;;;;5020397;28;90556;-41
2021/12/28 01:05:27;;;;;;;33.60;26.83;;;4.80;99.90;;;;;;5020516;28;89663;-38
2021/12/28 01:07:55;;;;;;;36.63;27.58;;;4.80;99.90;;;;;;5020735;28;88304;-40
2021/12/28 01:10:25;;;;;;;31.75;27.30;;;4.90;99.90;;;;;;5020522;28;87780;-39
2021/12/28 01:12:52;;;;;;;37.40;30.73;;;5.00;99.90;;;;;;5019807;28;90334;-40
2021/12/28 01:15:19;;;;;;;34.53;29.53;;;5.00;99.90;;;;;;5001861;28;89590;-45
2021/12/28 01:17:45;;;;;;;35.55;30.20;;;5.10;99.90;;;;;;5020495;28;87513;-38
2021/12/28 01:20:13;;;;;;;39.05;32.25;;;5.30;99.90;;;;;;5020664;28;89164;-41
2021/12/28 01:22:39;;;;;;;39.13;31.42;;;5.40;99.90;;;;;;5020322;28;91207;-41
2021/12/28 01:27:40;;;;;;;53.25;36.45;;;5.40;99.90;;;;;;4978975;28;89488;-41
2021/12/28 01:30:08;;;;;;;39.40;33.83;;;5.50;99.90;;;;;;4980334;28;89924;-37
2021/12/28 01:32:35;;;;;;;51.47;36.43;;;5.50;99.90;;;;;;4980574;28;90147;-39
2021/12/28 01:35:00;;;;;;;45.10;34.53;;;5.50;99.90;;;;;;4980905;28;89512;-41
2021/12/28 01:37:26;;;;;;;49.65;35.45;;;5.50;99.90;;;;;;4979824;28;90479;-46
2021/12/28 01:39:52;;;;;;;41.45;34.08;;;5.50;99.90;;;;;;4980929;28;89029;-36
2021/12/28 01:42:17;;;;;;;46.78;34.45;;;5.50;99.90;;;;;;4979896;28;90420;-42
2021/12/28 01:44:43;;;;;;;50.53;38.88;;;5.50;99.90;;;;;;4980357;28;89606;-42
2021/12/28 01:47:10;;;;;;;56.05;37.60;;;5.60;99.90;;;;;;4980263;28;88020;-43
2021/12/28 01:49:35;;;;;;;47.78;35.90;;;5.60;99.90;;;;;;4979919;28;88761;-42
2021/12/28 01:52:01;;;;;;;61.72;40.50;;;5.70;99.90;;;;;;4980075;28;89115;-38
2021/12/28 01:54:27;;;;;;;53.90;39.90;;;5.70;99.90;;;;;;4979767;28;89745;-37
2021/12/28 01:56:53;;;;;;;55.55;39.40;;;5.60;99.90;;;;;;4979981;28;89268;-40
2021/12/28 01:59:20;;;;;;;68.15;42.53;;;5.70;99.90;;;;;;4979554;28;87793;-39
2021/12/28 02:01:47;;;;;;;59.17;38.00;;;5.70;99.90;;;;;;4979499;28;90837;-35
2021/12/28 02:04:15;;;;;;;57.72;39.40;;;5.70;99.90;;;;;;4980019;28;90204;-40
2021/12/28 02:06:42;;;;;;;62.97;39.05;;;5.70;99.90;;;;;;4980315;28;88482;-42
2021/12/28 02:09:07;;;;;;;60.45;41.05;;;5.80;99.90;;;;;;4980229;28;87671;-38
2021/12/28 02:11:33;;;;;;;62.08;39.55;;;5.80;99.90;;;;;;4979862;28;90417;-41
2021/12/28 02:14:00;;;;;;;57.78;40.17;;;5.70;99.90;;;;;;4979999;28;89618;-41
2021/12/28 02:16:26;;;;;;;60.33;38.33;;;5.80;99.90;;;;;;4979808;28;89519;-40
2021/12/28 02:18:52;;;;;;;62.50;40.90;;;5.80;99.90;;;;;;4979093;28;89921;-42
2021/12/28 02:21:17;;;;;;;69.72;42.97;;;5.80;99.90;;;;;;4979863;28;89811;-46
2021/12/28 02:23:43;;;;;;;63.08;39.35;;;5.80;99.90;;;;;;4979380;28;89544;-47
2021/12/28 02:26:09;;;;;;;58.25;37.65;;;5.80;99.90;;;;;;4979736;28;89381;-41
2021/12/28 02:28:35;;;;;;;50.83;37.88;;;5.80;99.90;;;;;;4979299;28;88714;-41
2021/12/28 02:31:02;;;;;;;56.97;39.30;;;5.80;99.90;;;;;;4980136;28;90863;-38
2021/12/28 02:33:28;;;;;;;57.63;39.80;;;5.70;99.90;;;;;;4980239;28;88908;-42
2021/12/28 02:35:56;;;;;;;65.65;42.00;;;5.70;99.90;;;;;;4979648;28;88927;-39
2021/12/28 02:38:22;;;;;;;67.95;41.65;;;5.80;99.90;;;;;;4978767;28;88703;-41
2021/12/28 02:40:48;;;;;;;57.80;37.92;;;5.80;99.90;;;;;;4979653;28;90010;-40
2021/12/28 02:43:16;;;;;;;60.67;37.80;;;5.80;99.90;;;;;;4978927;28;90167;-38
2021/12/28 02:45:52;;;;;;;38.90;31.40;;;5.70;99.90;;;;;;4979752;28;89800;-45
2021/12/28 02:48:18;;;;;;;61.00;37.17;;;5.80;99.90;;;;;;4979482;28;89399;-44
2021/12/28 02:50:48;;;;;;;56.55;36.25;;;5.80;99.90;;;;;;4978835;28;91640;-42
2021/12/28 02:53:15;;;;;;;55.70;38.22;;;5.80;99.90;;;;;;4979549;28;91150;-41
2021/12/28 02:55:42;;;;;;;53.67;38.07;;;5.80;99.90;;;;;;4979671;28;89919;-40
2021/12/28 02:58:22;;;;;;;51.47;37.35;;;5.80;99.90;;;;;;4980016;28;87671;-41
2021/12/28 03:00:52;;;;;;;52.33;36.92;;;5.90;99.90;;;;;;4979295;28;90870;-41
2021/12/28 03:03:26;;;;;;;47.95;37.78;;;5.90;99.90;;;;;;4979174;28;90372;-45
2021/12/28 03:05:54;;;;;;;61.45;40.20;;;6.00;99.90;;;;;;4979461;28;89274;-39
2021/12/28 03:08:23;;;;;;;48.70;38.38;;;5.90;99.90;;;;;;4978931;28;89033;-39
2021/12/28 03:10:49;;;;;;;53.08;37.80;;;6.00;99.90;;;;;;4982835;28;91194;-40
2021/12/28 03:13:40;;;;;;;56.83;41.10;;;6.00;99.90;;;;;;4982393;28;89493;-44
2021/12/28 03:16:07;;;;;;;46.05;36.65;;;6.00;99.90;;;;;;4974506;28;87509;-38
2021/12/28 03:18:33;;;;;;;51.78;39.05;;;6.00;99.90;;;;;;4983000;28;88378;-39
2021/12/28 03:20:59;;;;;;;50.85;39.53;;;6.00;99.90;;;;;;4982915;28;90753;-33
2021/12/28 03:23:26;;;;;;;51.55;40.88;;;6.00;99.90;;;;;;4982337;28;89017;-34
2021/12/28 03:25:53;;;;;;;63.28;40.25;;;6.10;99.90;;;;;;4982421;28;88541;-38
2021/12/28 03:28:24;;;;;;;60.20;42.03;;;6.10;99.90;;;;;;4981884;28;88256;-37
2021/12/28 03:30:56;;;;;;;51.55;39.13;;;6.10;99.90;;;;;;4982089;28;89364;-35
2021/12/28 03:33:25;;;;;;;62.92;38.85;;;6.10;99.90;;;;;;4982681;28;89416;-39
2021/12/28 03:35:51;;;;;;;59.10;41.13;;;6.10;99.90;;;;;;4982589;28;87561;-36
2021/12/28 03:38:17;;;;;;;63.38;42.22;;;6.10;99.90;;;;;;4981532;28;89354;-42
2021/12/28 03:40:43;;;;;;;57.58;41.25;;;6.20;99.90;;;;;;4980296;28;89924;-39
2021/12/28 03:43:09;;;;;;;63.33;40.90;;;6.20;99.90;;;;;;4980114;28;89709;-34
2021/12/28 03:45:35;;;;;;;84.93;44.92;;;6.20;99.90;;;;;;4979975;28;89341;-40
2021/12/28 03:48:00;;;;;;;122.63;48.22;;;6.10;99.90;;;;;;4980110;28;89007;-43
2021/12/28 03:50:26;;;;;;;120.00;46.92;;;6.10;99.90;;;;;;4979156;28;90350;-41
2021/12/28 03:52:53;;;;;;;175.07;52.20;;;6.20;99.90;;;;;;4979620;28;89972;-38
2021/12/28 03:55:20;;;;;;;116.72;48.90;;;6.20;99.90;;;;;;4979880;28;89007;-42
2021/12/28 03:57:45;;;;;;;153.38;51.15;;;6.20;99.90;;;;;;4980128;28;88943;-36
2021/12/28 04:00:13;;;;;;;240.85;59.67;;;6.20;99.90;;;;;;4979496;28;90258;-42
2021/12/28 04:02:40;;;;;;;336.38;77.53;;;6.20;99.90;;;;;;4979003;28;90213;-43
2021/12/28 04:05:06;;;;;;;199.27;56.42;;;6.10;99.90;;;;;;4979748;28;87534;-34
2021/12/28 04:07:32;;;;;;;136.27;47.10;;;6.00;99.90;;;;;;4979102;28;87608;-40
2021/12/28 04:10:01;;;;;;;204.27;54.80;;;6.00;99.90;;;;;;4979878;28;90507;-39
2021/12/28 04:12:28;;;;;;;109.68;43.35;;;6.00;99.90;;;;;;4977016;28;90336;-35
2021/12/28 04:14:54;;;;;;;104.18;40.65;;;6.00;99.90;;;;;;4979254;28;88613;-37
2021/12/28 04:17:21;;;;;;;200.63;57.10;;;6.00;99.90;;;;;;4978155;28;87597;-38
2021/12/28 04:19:47;;;;;;;93.95;36.05;;;6.00;99.90;;;;;;4978309;28;90610;-39
2021/12/28 04:22:13;;;;;;;140.85;43.75;;;6.00;99.90;;;;;;4979485;28;88803;-36
2021/12/28 04:24:39;;;;;;;201.60;51.45;;;6.00;99.90;;;;;;4979024;28;88805;-43
2021/12/28 04:27:05;;;;;;;125.00;39.50;;;5.90;99.90;;;;;;4978712;28;87855;-40
2021/12/28 04:29:31;;;;;;;354.55;74.18;;;5.90;99.90;;;;;;4979054;28;90572;-40
2021/12/28 04:31:56;;;;;;;80.65;35.05;;;5.80;99.90;;;;;;4979230;28;89615;-41
2021/12/28 04:34:22;;;;;;;168.68;45.20;;;5.70;99.90;;;;;;4978637;28;88991;-43
2021/12/28 04:36:49;;;;;;;170.45;46.47;;;5.60;99.90;;;;;;4978997;28;87560;-39
2021/12/28 04:39:15;;;;;;;135.13;38.90;;;5.60;99.90;;;;;;4979753;28;90178;-42
2021/12/28 04:41:40;;;;;;;80.43;30.92;;;5.60;99.90;;;;;;4978675;28;90128;-38
2021/12/28 04:44:06;;;;;;;85.53;33.67;;;5.50;99.90;;;;;;4979395;28;87559;-37
2021/12/28 04:46:32;;;;;;;110.45;34.58;;;5.50;99.90;;;;;;4978644;28;88866;-40
2021/12/28 04:48:59;;;;;;;186.35;47.35;;;5.50;99.90;;;;;;4978631;28;90364;-46
2021/12/28 04:51:25;;;;;;;63.65;29.10;;;5.50;99.90;;;;;;4978411;28;90283;-41
2021/12/28 04:53:54;;;;;;;103.32;33.88;;;5.40;99.90;;;;;;4978198;28;89388;-39
2021/12/28 04:56:19;;;;;;;158.60;41.00;;;5.40;99.90;;;;;;4978182;28;90098;-36
2021/12/28 04:58:45;;;;;;;88.20;32.10;;;5.40;99.90;;;;;;4979242;28;90362;-40
2021/12/28 05:01:11;;;;;;;77.43;31.83;;;5.40;99.90;;;;;;4979209;28;89670;-38
2021/12/28 05:03:37;;;;;;;64.95;29.65;;;5.40;99.90;;;;;;4978383;28;90112;-45
2021/12/28 05:06:03;;;;;;;36.40;27.98;;;5.30;99.90;;;;;;4979234;28;88562;-41
2021/12/28 05:08:29;;;;;;;96.63;33.70;;;5.30;99.90;;;;;;4977998;28;89471;-41
2021/12/28 05:10:54;;;;;;;243.43;51.53;;;5.30;99.90;;;;;;4978958;28;89638;-45
2021/12/28 05:13:22;;;;;;;261.85;54.25;;;5.20;99.90;;;;;;4978818;28;89952;-37
2021/12/28 05:15:49;;;;;;;155.60;42.00;;;5.20;99.90;;;;;;4975957;28;88815;-33
2021/12/28 05:18:15;;;;;;;97.97;30.65;;;5.20;99.90;;;;;;4978552;28;90212;-45
2021/12/28 05:20:43;;;;;;;161.35;40.05;;;5.20;99.90;;;;;;4978049;28;89959;-40
2021/12/28 05:23:09;;;;;;;;;;;5.20;99.90;;;;;;4976498;28;87524;-35
2021/12/28 05:25:35;;;;;;;167.38;45.53;;;5.20;99.90;;;;;;4980155;28;89659;-41
2021/12/28 05:28:01;;;;;;;69.03;32.88;;;5.20;99.90;;;;;;4978770;28;90144;-41
2021/12/28 05:30:27;;;;;;;120.18;35.55;;;5.10;99.90;;;;;;4977240;28;89672;-36
2021/12/28 05:32:52;;;;;;;132.82;42.75;;;5.20;99.90;;;;;;4977578;28;89338;-39
2021/12/28 05:35:18;;;;;;;68.70;31.50;;;5.20;99.90;;;;;;4978061;28;87557;-42
2021/12/28 05:37:44;;;;;;;83.05;36.05;;;5.20;99.90;;;;;;4978440;28;90629;-41
2021/12/28 05:40:11;;;;;;;37.95;25.55;;;5.20;99.90;;;;;;4978333;28;89706;-35
2021/12/28 05:42:37;;;;;;;41.60;28.63;;;5.30;99.90;;;;;;4977324;28;90464;-42
2021/12/28 05:45:04;;;;;;;65.80;30.17;;;5.30;99.90;;;;;;4978059;28;89251;-46
2021/12/28 05:47:30;;;;;;;38.55;26.55;;;5.30;99.90;;;;;;4977578;28;90328;-38
2021/12/28 05:49:55;;;;;;;45.70;29.42;;;5.30;99.90;;;;;;4978142;28;90231;-39
2021/12/28 05:52:21;;;;;;;50.60;29.88;;;5.30;99.90;;;;;;4977933;28;88555;-40
2021/12/28 05:54:47;;;;;;;43.22;27.33;;;5.30;99.90;;;;;;4977773;28;88281;-37
2021/12/28 05:57:12;;;;;;;47.67;28.17;;;5.30;99.90;;;;;;4977697;28;90450;-43
2021/12/28 05:59:38;;;;;;;45.33;30.08;;;5.40;99.90;;;;;;4977452;28;91010;-37
2021/12/28 06:02:05;;;;;;;44.17;29.05;;;5.40;99.90;;;;;;4977572;28;89016;-38
2021/12/28 06:04:30;;;;;;;52.33;30.80;;;5.40;99.90;;;;;;4978380;28;88723;-41
2021/12/28 06:06:56;;;;;;;45.83;28.23;;;5.30;99.90;;;;;;4977496;28;90162;-39
2021/12/28 06:09:21;;;;;;;39.75;27.63;;;5.30;99.90;;;;;;4977400;28;90111;-41
2021/12/28 06:11:47;;;;;;;46.85;29.30;;;5.30;99.90;;;;;;4977584;28;90004;-39
2021/12/28 06:14:13;;;;;;;49.33;30.15;;;5.40;99.90;;;;;;4978887;28;88443;-43
2021/12/28 06:16:39;;;;;;;43.50;27.90;;;5.30;99.90;;;;;;4978436;28;90475;-43
2021/12/28 06:19:05;;;;;;;43.28;29.83;;;5.40;99.90;;;;;;4979433;28;89472;-43
2021/12/28 06:21:31;;;;;;;54.08;29.95;;;5.40;99.90;;;;;;4979445;28;89595;-41
2021/12/28 06:23:59;;;;;;;53.47;30.88;;;5.40;99.90;;;;;;4979831;28;87591;-39
2021/12/28 06:26:26;;;;;;;40.75;27.10;;;5.30;99.90;;;;;;4972835;28;91987;-40
2021/12/28 06:28:52;;;;;;;43.58;28.40;;;5.30;99.90;;;;;;4961892;28;89725;-36
2021/12/28 06:31:17;;;;;;;33.88;24.48;;;5.30;99.90;;;;;;4972102;28;88516;-45
2021/12/28 06:33:43;;;;;;;38.92;26.88;;;5.30;99.90;;;;;;4966120;28;88662;-40
2021/12/28 06:36:09;;;;;;;37.80;26.92;;;5.30;99.90;;;;;;4971125;28;90669;-37
2021/12/28 06:38:34;;;;;;;31.42;24.52;;;5.30;99.90;;;;;;4973192;28;90768;-41
2021/12/28 06:41:00;;;;;;;40.42;25.67;;;5.30;99.90;;;;;;4973964;28;87711;-41
2021/12/28 06:43:26;;;;;;;29.17;23.08;;;5.30;99.90;;;;;;4973531;28;88751;-38
2021/12/28 06:45:54;;;;;;;37.00;25.60;;;5.30;99.90;;;;;;4976782;28;89299;-37
2021/12/28 06:48:20;;;;;;;32.40;22.83;;;5.20;99.90;;;;;;4977378;28;88912;-35
2021/12/28 06:50:45;;;;;;;25.90;23.08;;;5.30;99.90;;;;;;4977478;28;87644;-35
2021/12/28 06:53:11;;;;;;;30.00;24.27;;;5.30;99.90;;;;;;4976456;28;90298;-36
2021/12/28 06:55:36;;;;;;;30.15;23.85;;;5.20;99.90;;;;;;4977581;28;91073;-41
2021/12/28 06:58:04;;;;;;;32.10;21.88;;;5.30;99.90;;;;;;4977180;28;90505;-41
2021/12/28 07:00:31;;;;;;;24.65;20.63;;;5.30;99.90;;;;;;4976933;28;88088;-38
2021/12/28 07:02:56;;;;;;;28.92;20.88;;;5.30;99.90;;;;;;4977212;28;88214;-42
2021/12/28 07:05:22;;;;;;;30.48;21.25;;;5.30;99.90;;;;;;4976023;28;90963;-42
2021/12/28 07:07:47;;;;;;;25.67;20.02;;;5.40;99.90;;;;;;4977312;28;90459;-45
2021/12/28 07:10:13;;;;;;;29.80;20.10;;;5.40;99.90;;;;;;4977377;28;90680;-39
2021/12/28 07:12:39;;;;;;;22.33;18.67;;;5.40;99.90;;;;;;4975599;28;88932;-46
2021/12/28 07:15:06;;;;;;;26.50;19.80;;;5.40;99.90;;;;;;4942919;28;90191;-45
2021/12/28 07:17:31;;;;;;;21.92;18.50;;;5.40;99.90;;;;;;4988586;28;89650;-41
2021/12/28 07:19:57;;;;;;;29.48;20.63;;;5.40;99.90;;;;;;4975144;28;89048;-44
2021/12/28 07:22:23;;;;;;;22.27;16.35;;;5.40;99.90;;;;;;4975013;28;88627;-37
2021/12/28 07:24:48;;;;;;;23.13;17.95;;;5.50;99.90;;;;;;4974251;28;90645;-42
2021/12/28 07:27:14;;;;;;;26.27;17.05;;;5.50;99.90;;;;;;4974879;28;89721;-38
2021/12/28 07:29:39;;;;;;;22.42;16.10;;;5.40;99.90;;;;;;4973597;28;88989;-43
2021/12/28 07:32:08;;;;;;;20.35;15.95;;;5.40;99.90;;;;;;4975381;28;89113;-44
2021/12/28 07:34:34;;;;;;;20.48;15.02;;;5.40;99.90;;;;;;4974894;28;90524;-43
2021/12/28 07:37:00;;;;;;;19.40;15.27;;;5.50;99.90;;;;;;4974237;28;89611;-38
2021/12/28 07:39:26;;;;;;;20.83;15.70;;;5.50;99.90;;;;;;4974202;28;89824;-41
2021/12/28 07:41:52;;;;;;;22.90;14.88;;;5.50;99.90;;;;;;4973523;28;87689;-39
2021/12/28 07:44:18;;;;;;;32.08;16.90;;;5.50;99.90;;;;;;4970824;28;90585;-45
2021/12/28 07:46:44;;;;;;;20.55;15.57;;;5.60;99.90;;;;;;4956588;28;89939;-41
2021/12/28 07:49:50;;;;;;;24.63;15.15;;;5.60;99.90;;;;;;5002478;28;87526;-38
2021/12/28 07:53:17;;;;;;;16.95;13.20;;;5.50;99.90;;;;;;4991668;28;87482;-38
2021/12/28 07:56:07;;;;;;;20.43;14.13;;;5.60;99.90;;;;;;4977495;28;87858;-39
2021/12/28 07:59:26;;;;;;;21.38;13.25;;;5.60;99.90;;;;;;4991919;28;89313;-36
2021/12/28 08:06:21;;;;;;;20.58;12.52;;;5.60;99.90;;;;;;4876088;28;87742;-37
2021/12/28 08:09:39;;;;;;;15.35;13.00;;;5.70;99.90;;;;;;4872914;28;87554;-40
2021/12/28 08:16:06;;;;;;;19.27;13.52;;;5.70;99.90;;;;;;4873722;28;87786;-36
2021/12/28 08:18:46;;;;;;;17.20;11.77;;;5.80;99.90;;;;;;4876063;28;87516;-36
2021/12/28 08:21:33;;;;;;;15.55;11.35;;;5.80;99.90;;;;;;4876034;28;90328;-40
2021/12/28 08:24:42;;;;;;;18.83;12.02;;;5.80;99.90;;;;;;4876032;28;88922;-40
2021/12/28 08:27:09;;;;;;;18.92;11.68;;;5.90;99.90;;;;;;4868089;28;88089;-39
2021/12/28 08:37:24;;;;;;;17.15;11.55;;;6.00;99.90;;;;;;4930613;28;88032;-38
2021/12/28 08:51:37;;;;;;;19.30;9.60;;;6.10;99.90;;;;;;4949754;28;87610;-38
2021/12/28 08:54:53;;;;;;;16.05;9.80;;;6.20;99.90;;;;;;4920733;28;87714;-41
2021/12/28 09:05:11;;;;;;;14.30;9.95;;;6.10;99.90;;;;;;4971992;28;87793;-37
2021/12/28 09:08:16;;;;;;;18.80;10.13;;;6.20;99.90;;;;;;4986572;28;88271;-40
2021/12/28 09:15:26;;;;;;;15.07;10.10;;;6.10;99.90;;;;;;4995400;28;87704;-39
2021/12/28 09:18:44;;;;;;;18.42;10.27;;;6.10;99.90;;;;;;4994851;28;88232;-36
2021/12/28 10:19:01;;;;;;;17.25;9.02;;;7.20;99.90;;;;;;5016626;22;88232;-38
2021/12/28 10:21:28;;;;;;;15.45;8.38;;;7.30;99.90;;;;;;4976774;28;89736;-39
2021/12/28 10:28:04;;;;;;;13.02;8.13;;;7.30;99.90;;;;;;4975474;28;88019;-40
2021/12/28 10:31:18;;;;;;;14.98;8.63;;;7.30;99.90;;;;;;4977845;28;89313;-38
2021/12/28 10:38:06;;;;;;;16.23;9.40;;;7.40;99.90;;;;;;4915343;28;88393;-39
2021/12/28 10:41:25;;;;;;;16.88;7.95;;;7.30;99.90;;;;;;4897310;28;89121;-38
2021/12/28 10:44:25;;;;;;;22.23;8.98;;;7.50;99.90;;;;;;4913352;28;89460;-41
2021/12/28 10:51:08;;;;;;;14.02;9.98;;;7.50;99.90;;;;;;4872152;28;88686;-40
2021/12/28 10:57:19;;;;;;;15.02;9.45;;;7.50;99.90;;;;;;4934266;28;88359;-41
2021/12/28 11:00:46;;;;;;;18.15;9.95;;;7.50;99.90;;;;;;4895986;28;88363;-42
2021/12/28 11:07:33;;;;;;;14.27;9.35;;;7.60;99.90;;;;;;4934531;28;87922;-39
2021/12/28 11:10:08;;;;;;;21.00;9.52;;;7.60;99.90;;;;;;4919535;28;90095;-42
2021/12/28 11:12:58;;;;;;;19.30;9.15;;;7.60;99.90;;;;;;4939349;28;88960;-37
2021/12/28 11:24:47;;;;;;;11.85;8.77;;;7.70;99.90;;;;;;4894797;28;88257;-40
2021/12/28 11:31:45;;;;;;;15.45;8.50;;;7.80;99.90;;;;;;4893992;28;87495;-38
2021/12/28 12:11:05;;;;;;;15.93;10.13;;;7.90;99.90;;;;;;4970176;28;87862;-45
2021/12/28 12:13:48;;;;;;;15.40;9.82;;;7.90;99.90;;;;;;4961061;28;90148;-43
2021/12/28 12:16:16;;;;;;;12.63;10.20;;;7.80;99.90;;;;;;4957165;28;90732;-37
2021/12/28 12:18:47;;;;;;;14.98;12.20;;;7.90;99.90;;;;;;4958464;28;89779;-35
2021/12/28 12:21:17;;;;;;;14.48;12.02;;;7.90;99.90;;;;;;4958199;28;89658;-38
2021/12/28 12:23:50;;;;;;;17.23;11.45;;;7.90;99.90;;;;;;4957885;28;91611;-41
2021/12/28 12:26:26;;;;;;;16.80;12.25;;;7.90;99.90;;;;;;4952493;28;89953;-38
2021/12/28 12:28:54;;;;;;;17.10;10.75;;;7.90;99.90;;;;;;4856155;28;89557;-42
2021/12/28 12:31:27;;;;;;;17.23;11.52;;;8.00;99.90;;;;;;4958495;28;89990;-45
2021/12/28 12:33:53;;;;;;;22.70;13.00;;;8.00;99.90;;;;;;4954854;28;90957;-42
2021/12/28 12:36:35;;;;;;;15.75;13.35;;;8.00;99.90;;;;;;4971089;28;90118;-40
2021/12/28 12:39:03;;;;;;;13.52;12.13;;;8.00;99.90;;;;;;4952499;28;89992;-37
2021/12/28 12:41:49;;;;;;;13.20;11.82;;;7.90;99.90;;;;;;4967250;28;89612;-43
2021/12/28 12:44:23;;;;;;;17.95;12.32;;;8.00;99.90;;;;;;4978479;28;90120;-42
2021/12/28 12:46:52;;;;;;;21.05;13.27;;;7.90;99.90;;;;;;4977012;28;89899;-41
2021/12/28 12:49:24;;;;;;;18.77;13.57;;;7.90;99.90;;;;;;4977449;28;88737;-43
2021/12/28 12:51:56;;;;;;;15.93;13.10;;;7.90;99.90;;;;;;4970251;28;90302;-42
2021/12/28 12:54:38;;;;;;;16.15;13.63;;;7.90;99.90;;;;;;4976863;28;89598;-41
2021/12/28 12:57:05;;;;;;;13.70;12.57;;;7.90;99.90;;;;;;4976329;28;89525;-44
2021/12/28 12:59:37;;;;;;;16.95;12.50;;;7.90;99.90;;;;;;4967208;28;90397;-45
2021/12/28 13:02:06;;;;;;;15.15;13.60;;;8.00;99.90;;;;;;4971196;28;89906;-40
2021/12/28 13:04:31;;;;;;;14.32;12.77;;;7.90;99.90;;;;;;4973179;28;90563;-40
2021/12/28 13:07:01;;;;;;;12.63;11.43;;;7.90;99.90;;;;;;4973890;28;91257;-38
2021/12/28 13:09:28;;;;;;;16.70;12.00;;;7.90;99.90;;;;;;4976660;28;89050;-44
2021/12/28 13:11:54;;;;;;;12.18;9.95;;;7.90;99.90;;;;;;4976046;28;90253;-39
2021/12/28 13:14:19;;;;;;;15.50;13.93;;;8.00;99.90;;;;;;4974279;28;89966;-44
2021/12/28 13:17:05;;;;;;;16.98;11.57;;;8.00;99.90;;;;;;4976246;28;88830;-44
2021/12/28 13:19:31;;;;;;;17.60;14.60;;;8.00;99.90;;;;;;4971507;28;89634;-41
2021/12/28 13:22:04;;;;;;;15.20;13.57;;;7.90;99.90;;;;;;4973750;28;89864;-44
2021/12/28 13:27:04;;;;;;;16.25;12.73;;;7.90;99.90;;;;;;4984409;28;89482;-44
2021/12/28 13:29:38;;;;;;;16.40;14.70;;;8.00;99.90;;;;;;4983656;28;89531;-39
2021/12/28 13:32:16;;;;;;;15.45;13.48;;;7.90;99.90;;;;;;4986354;28;90200;-44
2021/12/28 13:35:15;;;;;;;17.10;13.80;;;7.90;99.90;;;;;;4982434;28;90031;-38
2021/12/28 13:37:47;;;;;;;15.23;13.52;;;7.90;99.90;;;;;;4982886;28;89495;-40
2021/12/28 13:40:30;;;;;;;15.38;13.73;;;7.90;99.90;;;;;;4984711;28;88235;-41
2021/12/28 13:42:58;;;;;;;16.08;14.07;;;7.80;99.90;;;;;;4986284;28;90887;-42
2021/12/28 13:45:38;;;;;;;19.00;14.90;;;7.80;99.90;;;;;;4984897;28;89233;-44
2021/12/28 13:48:26;;;;;;;15.98;14.15;;;7.80;99.90;;;;;;4983512;28;90645;-40
2021/12/28 13:51:05;;;;;;;20.87;15.40;;;7.90;99.90;;;;;;4984981;28;89751;-44
2021/12/28 13:53:35;;;;;;;16.42;14.77;;;7.90;99.90;;;;;;4977826;28;89603;-40
2021/12/28 13:56:06;;;;;;;17.45;15.40;;;7.90;99.90;;;;;;4980813;28;91272;-43
2021/12/28 13:58:40;;;;;;;22.98;18.27;;;7.80;99.90;;;;;;4970379;28;90692;-39
2021/12/28 14:01:10;;;;;;;18.95;16.40;;;7.80;99.90;;;;;;4977690;28;88434;-40
2021/12/28 14:03:37;;;;;;;19.33;17.55;;;7.80;99.90;;;;;;4976036;28;89509;-45
2021/12/28 14:06:03;;;;;;;19.83;17.83;;;7.80;99.90;;;;;;4977106;28;90745;-44
2021/12/28 14:08:31;;;;;;;20.85;18.35;;;7.80;99.90;;;;;;4975172;28;90688;-42
2021/12/28 14:10:59;;;;;;;20.58;17.63;;;7.80;99.90;;;;;;4981685;28;89593;-43
2021/12/28 14:13:31;;;;;;;24.20;19.42;;;7.80;99.90;;;;;;4983809;28;90475;-42
2021/12/28 14:16:15;;;;;;;22.58;18.90;;;7.90;99.90;;;;;;4995927;28;91124;-43
2021/12/28 14:18:45;;;;;;;20.75;18.73;;;7.90;99.90;;;;;;4996461;28;89545;-44
2021/12/28 14:21:17;;;;;;;20.42;18.42;;;7.90;99.90;;;;;;4955490;28;88016;-40
2021/12/28 14:23:51;;;;;;;18.92;16.98;;;7.90;99.90;;;;;;4955194;28;89932;-37
2021/12/28 14:26:19;;;;;;;20.50;17.73;;;7.90;99.90;;;;;;4956020;28;90013;-42
2021/12/28 14:28:58;;;;;;;;;;;8.00;99.90;;;;;;4956973;28;89629;-39
2021/12/28 14:31:34;;;;;;;18.27;15.73;;;8.00;99.90;;;;;;4957908;28;89979;-43
2021/12/28 14:34:01;;;;;;;18.67;16.67;;;8.00;99.90;;;;;;4955448;28;90228;-44
2021/12/28 14:36:39;;;;;;;19.38;17.33;;;8.00;99.90;;;;;;4956208;28;90299;-42
2021/12/28 14:39:32;;;;;;;14.55;13.07;;;8.00;99.90;;;;;;4956970;28;89212;-41
2021/12/28 14:42:14;;;;;;;16.10;14.45;;;8.10;99.90;;;;;;4956255;28;90299;-41
2021/12/28 14:44:44;;;;;;;15.95;13.45;;;8.10;99.90;;;;;;4955496;28;90292;-44
2021/12/28 14:47:25;;;;;;;20.55;13.85;;;8.10;99.90;;;;;;4956214;28;90954;-37
2021/12/28 14:49:54;;;;;;;14.32;12.85;;;8.10;99.90;;;;;;4938750;28;92270;-39
2021/12/28 14:52:24;;;;;;;10.77;9.63;;;8.20;99.90;;;;;;4956489;28;89919;-43
2021/12/28 14:55:12;;;;;;;11.57;9.52;;;8.20;99.90;;;;;;4957482;28;89882;-43
2021/12/28 14:57:54;;;;;;;;;;;8.30;99.90;;;;;;4968589;28;88435;-44
2021/12/28 15:00:31;;;;;;;7.18;6.40;;;8.20;99.90;;;;;;4975123;28;89073;-42
2021/12/28 15:03:09;;;;;;;7.85;7.07;;;8.20;99.90;;;;;;4975105;28;88513;-41
2021/12/28 15:05:54;;;;;;;6.00;5.40;;;8.10;99.90;;;;;;4978388;28;90637;-39
2021/12/28 15:08:21;;;;;;;7.30;6.57;;;8.10;99.90;;;;;;4979499;28;90937;-43
2021/12/28 15:10:49;;;;;;;12.95;6.50;;;8.10;99.90;;;;;;4982603;28;90094;-38
2021/12/28 15:13:27;;;;;;;7.38;6.70;;;8.10;99.90;;;;;;4987722;28;90217;-36
2021/12/28 15:15:53;;;;;;;8.03;7.37;;;8.00;99.90;;;;;;4986164;28;90757;-42
2021/12/28 15:18:19;;;;;;;7.53;6.82;;;7.90;99.90;;;;;;4996584;28;89551;-44
2021/12/28 15:20:46;;;;;;;6.40;5.05;;;7.90;99.90;;;;;;4998937;28;89380;-39
2021/12/28 15:23:12;;;;;;;14.15;5.45;;;7.80;99.90;;;;;;4999809;28;88627;-37
2021/12/28 15:25:37;;;;;;;64.75;10.35;;;7.80;99.90;;;;;;4998675;28;90673;-44
2021/12/28 15:28:05;;;;;;;70.22;9.40;;;7.70;99.90;;;;;;4997099;28;88596;-43
2021/12/28 15:30:36;;;;;;;103.65;12.52;;;7.60;99.90;;;;;;5000001;28;89204;-39
2021/12/28 15:33:03;;;;;;;8.38;3.90;;;7.50;99.90;;;;;;4999144;28;89065;-46
2021/12/28 15:35:33;;;;;;;29.90;6.03;;;7.50;99.90;;;;;;4999130;28;89829;-43
2021/12/28 15:38:02;;;;;;;7.40;3.72;;;7.50;99.90;;;;;;4999179;28;90584;-42
2021/12/28 15:40:37;;;;;;;16.60;4.95;;;7.40;99.90;;;;;;4981399;28;89427;-41
2021/12/28 15:43:04;;;;;;;7.50;4.45;;;7.40;99.90;;;;;;4977554;28;88888;-35
2021/12/28 15:45:30;;;;;;;7.05;3.40;;;7.30;99.90;;;;;;4979243;28;90624;-37
2021/12/28 15:47:57;;;;;;;8.32;3.28;;;7.30;99.90;;;;;;4979060;28;89940;-43
2021/12/28 15:50:23;;;;;;;7.65;2.72;;;7.30;99.90;;;;;;4979301;28;89894;-39